createdAt,value
2022-08-11T00:02:24.795Z,74.32
2022-08-11T00:04:54.852Z,74.59
2022-08-11T00:07:23.561Z,74.56
2022-08-11T00:09:51.945Z,74.32
2022-08-11T00:12:20.643Z,74.36
2022-08-11T00:14:57.051Z,74.41
2022-08-11T00:17:29.575Z,74.39
2022-08-11T00:20:15.076Z,74.55
2022-08-11T00:22:45.783Z,74.66
2022-08-11T00:25:15.518Z,74.64
2022-08-11T00:27:43.922Z,74.77
2022-08-11T00:30:13.557Z,75.01
2022-08-11T00:32:44.101Z,75.11
2022-08-11T00:35:54.865Z,75.10
2022-08-11T00:38:01.395Z,75.18
2022-08-11T00:40:37.093Z,74.90
2022-08-11T00:43:20.298Z,75.10
2022-08-11T00:46:12.072Z,75.16
2022-08-11T00:49:00.643Z,75.05
2022-08-11T00:52:02.239Z,74.99
2022-08-11T00:54:39.722Z,74.89
2022-08-11T00:57:36.713Z,75.10
2022-08-11T01:00:17.507Z,75.08
2022-08-11T01:03:04.239Z,75.12
2022-08-11T01:05:38.189Z,75.08
2022-08-11T01:08:25.615Z,75.13
2022-08-11T01:11:15.717Z,75.23
2022-08-11T01:13:50.255Z,75.39
2022-08-11T01:16:20.826Z,75.56
2022-08-11T01:19:21.957Z,75.28
2022-08-11T01:21:59.245Z,75.11
2022-08-11T01:24:47.263Z,75.39
2022-08-11T01:27:19.339Z,75.40
2022-08-11T01:30:06.531Z,75.34
2022-08-11T01:32:52.890Z,75.49
2022-08-11T01:35:39.908Z,75.44
2022-08-11T01:38:26.218Z,75.62
2022-08-11T01:40:57.041Z,75.76
2022-08-11T01:43:43.663Z,75.70
2022-08-11T01:46:30.167Z,75.60
2022-08-11T01:50:06.642Z,75.81
2022-08-11T01:52:07.322Z,75.67
2022-08-11T01:54:49.146Z,75.80
2022-08-11T01:57:20.024Z,75.63
2022-08-11T01:59:50.695Z,75.76
2022-08-11T02:02:44.513Z,75.67
2022-08-11T02:05:15.093Z,75.64
2022-08-11T02:07:58.489Z,75.59
2022-08-11T02:10:58.601Z,75.88
2022-08-11T02:13:49.361Z,75.94
2022-08-11T02:16:18.405Z,75.75
2022-08-11T02:19:12.106Z,75.71
2022-08-11T02:22:35.697Z,75.63
2022-08-11T02:25:07.940Z,75.46
2022-08-11T02:27:45.536Z,75.37
2022-08-11T02:30:18.858Z,75.42
2022-08-11T02:33:11.178Z,75.77
2022-08-11T02:35:42.970Z,75.74
2022-08-11T02:38:21.936Z,76.00
2022-08-11T02:41:01.821Z,75.75
2022-08-11T02:43:51.009Z,75.71
2022-08-11T02:46:22.105Z,76.05
2022-08-11T02:49:16.915Z,76.12
2022-08-11T02:51:53.961Z,76.18
2022-08-11T02:54:21.800Z,76.23
2022-08-11T02:56:57.556Z,76.33
2022-08-11T02:59:48.181Z,76.37
2022-08-11T03:02:30.418Z,76.45
2022-08-11T03:05:04.442Z,76.59
2022-08-11T03:07:43.874Z,76.53
2022-08-11T03:10:11.689Z,76.75
2022-08-11T03:13:08.326Z,76.62
2022-08-11T03:16:04.884Z,77.01
2022-08-11T03:18:45.663Z,77.10
2022-08-11T03:21:14.679Z,77.14
2022-08-11T03:23:45.626Z,77.20
2022-08-11T03:26:32.015Z,77.36
2022-08-11T03:29:09.004Z,77.59
2022-08-11T03:31:48.883Z,77.32
2022-08-11T03:34:21.267Z,77.49
2022-08-11T03:37:16.649Z,77.39
2022-08-11T03:39:57.867Z,77.25
2022-08-11T03:42:25.749Z,77.29
2022-08-11T03:44:56.714Z,77.36
2022-08-11T03:47:55.193Z,77.38
2022-08-11T03:50:46.309Z,77.54
2022-08-11T03:53:34.391Z,77.12
2022-08-11T03:56:08.162Z,77.14
2022-08-11T03:58:56.220Z,77.23
2022-08-11T04:01:26.887Z,77.25
2022-08-11T04:04:00.511Z,77.03
2022-08-11T04:06:50.085Z,77.10
2022-08-11T04:09:46.870Z,77.37
2022-08-11T04:12:47.066Z,77.18
2022-08-11T04:15:53.307Z,77.04
2022-08-11T04:18:50.714Z,76.89
2022-08-11T04:21:22.137Z,76.92
2022-08-11T04:24:12.938Z,77.06
2022-08-11T04:27:15.346Z,77.10
2022-08-11T04:30:05.243Z,76.92
2022-08-11T04:32:49.121Z,76.90
2022-08-11T04:35:32.522Z,76.72
2022-08-11T04:38:15.668Z,76.27
2022-08-11T04:40:50.978Z,75.99
2022-08-11T04:43:37.726Z,75.99
2022-08-11T04:46:31.787Z,75.94
2022-08-11T04:49:33.871Z,75.63
2022-08-11T04:52:39.784Z,75.65
2022-08-11T04:55:26.471Z,75.96
2022-08-11T04:58:30.014Z,76.12
2022-08-11T05:01:44.192Z,75.65
2022-08-11T05:04:40.295Z,75.68
2022-08-11T05:07:11.200Z,75.72
2022-08-11T05:09:54.549Z,75.53
2022-08-11T05:12:41.159Z,75.61
2022-08-11T05:15:42.458Z,74.92
2022-08-11T05:18:34.915Z,75.31
2022-08-11T05:21:26.763Z,75.27
2022-08-11T05:24:16.375Z,75.00
2022-08-11T05:27:12.878Z,74.89
2022-08-11T05:30:12.578Z,74.86
2022-08-11T05:33:02.259Z,74.82
2022-08-11T05:36:00.365Z,74.11
2022-08-11T05:38:41.721Z,74.06
2022-08-11T05:41:31.735Z,74.03
2022-08-11T05:44:22.369Z,73.72
2022-08-11T05:47:09.916Z,73.43
2022-08-11T05:49:58.016Z,73.37
2022-08-11T05:52:49.351Z,73.49
2022-08-11T05:56:01.782Z,73.14
2022-08-11T05:58:42.988Z,73.26
2022-08-11T06:01:13.290Z,72.63
2022-08-11T06:04:03.568Z,72.30
2022-08-11T06:06:31.818Z,71.98
2022-08-11T06:09:01.159Z,71.87
2022-08-11T06:11:43.688Z,71.03
2022-08-11T06:14:15.664Z,70.18
2022-08-11T06:16:47.797Z,69.87
2022-08-11T06:19:16.417Z,69.77
2022-08-11T06:21:45.323Z,69.57
2022-08-11T06:24:14.035Z,69.17
2022-08-11T06:27:09.015Z,68.84
2022-08-11T06:29:48.028Z,68.93
2022-08-11T06:32:42.742Z,69.19
2022-08-11T06:35:13.674Z,68.92
2022-08-11T06:37:45.623Z,68.30
2022-08-11T06:40:33.605Z,68.02
2022-08-11T06:43:07.330Z,67.68
2022-08-11T06:45:35.431Z,67.12
2022-08-11T06:48:06.767Z,66.27
2022-08-11T06:50:53.342Z,65.71
2022-08-11T06:53:21.896Z,65.26
2022-08-11T06:56:08.690Z,65.22
2022-08-11T06:58:59.317Z,64.85
2022-08-11T07:01:28.388Z,64.69
2022-08-11T07:04:07.585Z,64.60
2022-08-11T07:06:50.372Z,64.69
2022-08-11T07:09:49.220Z,64.71
2022-08-11T07:12:42.119Z,63.36
2022-08-11T07:16:11.128Z,63.08
2022-08-11T07:18:39.967Z,62.49
2022-08-11T07:22:01.246Z,62.36
2022-08-11T07:25:01.635Z,62.17
2022-08-11T07:28:25.720Z,61.66
2022-08-11T07:30:58.600Z,61.69
2022-08-11T07:34:07.268Z,61.74
2022-08-11T07:36:31.251Z,61.40
2022-08-11T07:38:59.891Z,61.12
2022-08-11T07:41:31.303Z,60.74
2022-08-11T07:44:09.470Z,60.42
2022-08-11T07:47:00.873Z,60.03
2022-08-11T07:49:50.208Z,59.59
2022-08-11T07:52:28.692Z,59.04
2022-08-11T07:54:59.404Z,58.06
2022-08-11T07:58:13.654Z,57.75
2022-08-11T08:01:01.242Z,57.42
2022-08-11T08:03:54.512Z,57.08
2022-08-11T08:06:42.222Z,56.07
2022-08-11T08:09:29.894Z,55.71
2022-08-11T08:12:18.613Z,55.74
2022-08-11T08:15:05.271Z,55.27
2022-08-11T08:18:20.399Z,54.90
2022-08-11T08:20:44.754Z,54.88
2022-08-11T08:23:13.250Z,55.31
2022-08-11T08:25:42.398Z,54.65
2022-08-11T08:28:16.103Z,55.52
2022-08-11T08:30:48.033Z,54.39
2022-08-11T08:33:18.955Z,54.63
2022-08-11T08:35:54.759Z,53.48
2022-08-11T08:38:24.674Z,52.96
2022-08-11T08:40:56.242Z,52.00
2022-08-11T08:43:25.729Z,51.74
2022-08-11T08:45:56.089Z,52.11
2022-08-11T08:48:25.112Z,52.30
2022-08-11T08:51:14.957Z,52.39
2022-08-11T08:53:53.195Z,52.35
2022-08-11T08:56:28.458Z,50.55
2022-08-11T08:58:59.625Z,49.74
2022-08-11T09:01:29.883Z,51.12
2022-08-11T09:04:07.267Z,49.61
2022-08-11T09:06:44.026Z,49.00
2022-08-11T09:09:18.392Z,48.38
2022-08-11T09:11:50.725Z,48.85
2022-08-11T09:14:20.553Z,48.56
2022-08-11T09:16:49.910Z,48.38
2022-08-11T09:19:19.659Z,47.81
2022-08-11T09:22:08.013Z,47.20
2022-08-11T09:24:55.970Z,46.87
2022-08-11T09:27:25.197Z,46.77
2022-08-11T09:29:53.869Z,47.33
2022-08-11T09:32:22.426Z,47.12
2022-08-11T09:34:52.487Z,47.20
2022-08-11T09:37:55.620Z,47.39
2022-08-11T09:40:31.427Z,45.48
2022-08-11T09:43:24.455Z,44.62
2022-08-11T09:45:54.162Z,44.68
2022-08-11T09:48:23.582Z,44.78
2022-08-11T09:50:53.368Z,43.75
2022-08-11T09:53:35.811Z,44.03
2022-08-11T09:56:26.702Z,45.14
2022-08-11T09:58:54.715Z,45.01
2022-08-11T10:01:29.986Z,45.72
2022-08-11T10:04:04.112Z,46.85
2022-08-11T10:06:54.325Z,45.39
2022-08-11T10:09:24.208Z,44.84
2022-08-11T10:11:57.612Z,44.52
2022-08-11T10:14:46.687Z,44.67
2022-08-11T10:17:16.342Z,45.38
2022-08-11T10:20:03.883Z,44.71
2022-08-11T10:23:08.860Z,44.70
2022-08-11T10:25:55.845Z,45.64
2022-08-11T10:28:33.876Z,45.87
2022-08-11T10:31:49.809Z,47.62
2022-08-11T10:34:20.508Z,47.78
2022-08-11T10:36:51.336Z,46.38
2022-08-11T10:39:20.524Z,47.38
2022-08-11T10:42:10.762Z,45.01
2022-08-11T10:44:46.105Z,44.16
2022-08-11T10:47:33.718Z,44.24
2022-08-11T10:50:30.427Z,43.59
2022-08-11T10:53:18.591Z,41.93
2022-08-11T10:56:05.832Z,41.66
2022-08-11T10:58:50.021Z,40.94
2022-08-11T11:01:22.858Z,39.78
2022-08-11T11:03:52.967Z,39.96
2022-08-11T11:06:44.975Z,39.69
2022-08-11T11:09:22.225Z,38.34
2022-08-11T11:12:12.461Z,37.34
2022-08-11T11:15:00.566Z,37.34
2022-08-11T11:17:57.832Z,37.07
2022-08-11T11:20:36.173Z,36.73
2022-08-11T11:23:10.269Z,36.55
2022-08-11T11:25:44.142Z,36.78
2022-08-11T11:28:27.133Z,36.17
2022-08-11T11:30:55.031Z,36.04
2022-08-11T11:34:06.671Z,35.79
2022-08-11T11:36:37.019Z,36.14
2022-08-11T11:39:06.097Z,34.60
2022-08-11T11:41:34.476Z,34.76
2022-08-11T11:44:03.151Z,34.60
2022-08-11T11:46:32.014Z,33.87
2022-08-11T11:49:13.952Z,34.27
2022-08-11T11:51:50.119Z,33.58
2022-08-11T11:54:21.608Z,33.84
2022-08-11T11:56:53.255Z,33.37
2022-08-11T11:59:41.450Z,33.31
2022-08-11T12:02:12.170Z,33.46
2022-08-11T12:04:41.979Z,33.02
2022-08-11T12:07:30.162Z,32.92
2022-08-11T12:09:58.742Z,32.66
2022-08-11T12:12:45.319Z,32.01
2022-08-11T12:15:13.744Z,32.74
2022-08-11T12:17:41.859Z,32.94
2022-08-11T12:20:31.855Z,33.25
2022-08-11T12:23:17.390Z,33.32
2022-08-11T12:26:25.876Z,33.82
2022-08-11T12:28:52.530Z,33.12
2022-08-11T12:31:26.182Z,33.82
2022-08-11T12:33:56.291Z,33.89
2022-08-11T12:36:24.337Z,33.69
2022-08-11T12:38:53.588Z,33.07
2022-08-11T12:41:41.238Z,33.61
2022-08-11T12:44:29.695Z,33.78
2022-08-11T12:46:59.901Z,34.23
2022-08-11T12:49:47.447Z,33.50
2022-08-11T12:52:21.263Z,33.26
2022-08-11T12:54:52.365Z,33.43
2022-08-11T12:57:58.056Z,34.00
2022-08-11T13:00:45.643Z,34.09
2022-08-11T13:03:32.953Z,34.01
2022-08-11T13:06:05.020Z,34.10
2022-08-11T13:08:35.650Z,32.94
2022-08-11T13:11:22.879Z,33.10
2022-08-11T13:13:57.390Z,33.80
2022-08-11T13:16:28.610Z,33.54
2022-08-11T13:18:58.079Z,33.87
2022-08-11T13:21:27.049Z,33.46
2022-08-11T13:24:00.999Z,33.55
2022-08-11T13:26:43.115Z,33.72
2022-08-11T13:29:23.250Z,33.59
2022-08-11T13:31:52.785Z,33.89
2022-08-11T13:34:22.103Z,33.20
2022-08-11T13:36:52.495Z,32.70
2022-08-11T13:39:25.907Z,32.79
2022-08-11T13:41:59.613Z,33.20
2022-08-11T13:44:30.066Z,32.63
2022-08-11T13:47:01.777Z,31.88
2022-08-11T13:49:31.258Z,32.30
2022-08-11T13:51:59.702Z,32.05
2022-08-11T13:54:30.229Z,31.95
2022-08-11T13:57:01.270Z,32.48
2022-08-11T13:59:30.969Z,32.73
2022-08-11T14:02:28.687Z,31.88
2022-08-11T14:04:54.773Z,32.37
2022-08-11T14:07:24.851Z,32.44
2022-08-11T14:09:58.371Z,32.10
2022-08-11T14:12:46.138Z,31.67
2022-08-11T14:15:20.214Z,32.24
2022-08-11T14:17:52.171Z,32.44
2022-08-11T14:20:38.074Z,32.29
2022-08-11T14:23:14.128Z,33.21
2022-08-11T14:26:02.867Z,33.57
2022-08-11T14:28:39.963Z,33.34
2022-08-11T14:31:13.310Z,33.35
2022-08-11T14:34:00.139Z,33.79
2022-08-11T14:36:31.805Z,33.73
2022-08-11T14:39:01.477Z,33.39
2022-08-11T14:42:10.924Z,33.63
2022-08-11T14:44:56.343Z,33.87
2022-08-11T14:47:25.587Z,34.10
2022-08-11T14:50:09.390Z,34.42
2022-08-11T14:52:39.246Z,34.74
2022-08-11T14:55:26.636Z,34.51
2022-08-11T14:58:04.604Z,34.04
2022-08-11T15:00:34.691Z,33.92
2022-08-11T15:03:14.130Z,34.53
2022-08-11T15:05:56.286Z,34.67
2022-08-11T15:08:46.134Z,34.50
2022-08-11T15:11:33.780Z,35.12
2022-08-11T15:14:03.596Z,35.57
2022-08-11T15:16:50.625Z,35.84
2022-08-11T15:19:21.417Z,35.40
2022-08-11T15:22:09.238Z,35.25
2022-08-11T15:24:37.671Z,37.15
2022-08-11T15:27:28.073Z,36.24
2022-08-11T15:30:20.923Z,36.14
2022-08-11T15:33:25.026Z,36.79
2022-08-11T15:36:13.491Z,37.67
2022-08-11T15:38:47.694Z,36.96
2022-08-11T15:41:35.833Z,36.13
2022-08-11T15:44:51.353Z,37.47
2022-08-11T15:47:16.371Z,37.02
2022-08-11T15:50:11.188Z,36.21
2022-08-11T15:52:35.046Z,37.11
2022-08-11T15:55:08.595Z,36.42
2022-08-11T15:57:55.887Z,36.67
2022-08-11T16:00:43.557Z,37.18
2022-08-11T16:04:05.589Z,38.68
2022-08-11T16:06:19.994Z,38.38
2022-08-11T16:08:52.873Z,37.97
2022-08-11T16:11:21.854Z,37.64
2022-08-11T16:14:09.869Z,37.57
2022-08-11T16:16:39.364Z,37.43
2022-08-11T16:19:11.012Z,38.36
2022-08-11T16:21:43.789Z,39.63
2022-08-11T16:26:30.439Z,39.40
2022-08-11T16:27:13.202Z,39.02
2022-08-11T16:29:48.013Z,40.14
2022-08-11T16:32:17.637Z,41.30
2022-08-11T16:35:05.199Z,40.12
2022-08-11T16:37:55.760Z,39.33
2022-08-11T16:40:24.575Z,38.63
2022-08-11T16:43:12.474Z,38.40
2022-08-11T16:45:59.798Z,38.17
2022-08-11T16:48:35.333Z,38.74
2022-08-11T16:51:07.254Z,39.79
2022-08-11T16:53:54.908Z,40.31
2022-08-11T16:56:27.547Z,40.05
2022-08-11T16:59:15.892Z,41.07
2022-08-11T17:01:56.083Z,41.15
2022-08-11T17:05:01.685Z,41.31
2022-08-11T17:07:48.830Z,42.10
2022-08-11T17:10:52.900Z,42.77
2022-08-11T17:13:48.864Z,43.08
2022-08-11T17:16:20.154Z,43.20
2022-08-11T17:18:59.901Z,43.75
2022-08-11T17:21:33.907Z,44.56
2022-08-11T17:24:06.424Z,44.91
2022-08-11T17:26:58.826Z,45.07
2022-08-11T17:29:53.987Z,45.50
2022-08-11T17:32:55.588Z,46.58
2022-08-11T17:35:34.356Z,46.65
2022-08-11T17:38:05.140Z,46.62
2022-08-11T17:40:37.202Z,46.91
2022-08-11T17:43:26.349Z,46.85
2022-08-11T17:46:08.200Z,46.65
2022-08-11T17:48:37.893Z,46.69
2022-08-11T17:51:38.850Z,46.69
2022-08-11T17:54:26.603Z,47.15
2022-08-11T17:57:19.912Z,47.14
2022-08-11T17:59:55.407Z,47.28
2022-08-11T18:02:48.929Z,47.56
2022-08-11T18:05:19.931Z,47.84
2022-08-11T18:08:09.190Z,47.66
2022-08-11T18:10:56.382Z,47.92
2022-08-11T18:13:44.121Z,48.09
2022-08-11T18:16:31.261Z,48.03
2022-08-11T18:19:17.988Z,48.58
2022-08-11T18:22:14.991Z,49.05
2022-08-11T18:25:05.807Z,49.61
2022-08-11T18:27:53.507Z,49.61
2022-08-11T18:30:40.664Z,50.03
2022-08-11T18:36:38.763Z,50.24
2022-08-11T18:39:28.129Z,51.31
2022-08-11T18:42:19.493Z,51.84
2022-08-11T18:45:21.921Z,51.79
2022-08-11T18:48:11.479Z,51.91
2022-08-11T18:51:30.725Z,52.39
2022-08-11T18:54:10.527Z,52.66
2022-08-11T18:56:58.133Z,52.62
2022-08-11T18:59:45.672Z,52.99
2022-08-11T19:02:48.899Z,53.30
2022-08-11T19:06:32.175Z,53.39
2022-08-11T19:09:10.005Z,53.68
2022-08-11T19:11:59.712Z,54.39
2022-08-11T19:14:48.699Z,54.10
2022-08-11T19:17:44.526Z,53.93
2022-08-11T19:20:34.233Z,53.99
2022-08-11T19:23:21.576Z,54.46
2022-08-11T19:26:08.310Z,55.20
2022-08-11T19:28:55.928Z,55.43
2022-08-11T19:31:45.007Z,55.59
2022-08-11T19:34:34.557Z,55.84
2022-08-11T19:37:24.706Z,55.65
2022-08-11T19:40:13.413Z,56.44
2022-08-11T19:43:00.779Z,56.74
2022-08-11T19:45:52.637Z,57.14
2022-08-11T19:48:40.647Z,57.37
2022-08-11T19:51:28.770Z,57.19
2022-08-11T19:54:16.520Z,57.50
2022-08-11T19:57:03.820Z,57.01
2022-08-11T19:59:51.219Z,57.30
2022-08-11T20:02:38.415Z,57.84
2022-08-11T20:05:25.138Z,57.96
2022-08-11T20:08:13.227Z,58.28
2022-08-11T20:11:00.431Z,58.13
2022-08-11T20:13:47.202Z,58.66
2022-08-11T20:16:38.118Z,59.32
2022-08-11T20:19:54.717Z,59.73
2022-08-11T20:22:34.359Z,59.54
2022-08-11T20:25:22.623Z,59.98
2022-08-11T20:28:09.388Z,60.06
2022-08-11T20:30:56.450Z,60.25
2022-08-11T20:33:42.808Z,60.96
2022-08-11T20:36:30.537Z,61.24
2022-08-11T20:39:18.658Z,61.65
2022-08-11T20:42:06.313Z,61.81
2022-08-11T20:44:55.384Z,62.41
2022-08-11T20:47:59.191Z,62.42
2022-08-11T20:50:48.056Z,62.72
2022-08-11T20:53:39.360Z,62.93
2022-08-11T20:56:28.502Z,63.38
2022-08-11T20:59:18.260Z,63.62
2022-08-11T21:02:09.761Z,63.53
2022-08-11T21:05:00.691Z,63.85
2022-08-11T21:07:56.880Z,64.49
2022-08-11T21:10:54.067Z,64.66
2022-08-11T21:13:43.271Z,64.68
2022-08-11T21:16:35.574Z,64.82
2022-08-11T21:20:01.635Z,65.16
2022-08-11T21:22:36.061Z,65.55
2022-08-11T21:25:26.212Z,65.97
2022-08-11T21:28:17.571Z,66.00
2022-08-11T21:31:04.727Z,66.03
2022-08-11T21:33:51.789Z,66.55
2022-08-11T21:36:39.538Z,66.26
2022-08-11T21:39:27.041Z,66.63
2022-08-11T21:42:14.099Z,66.90
2022-08-11T21:45:01.495Z,66.92
2022-08-11T21:47:49.768Z,67.28
2022-08-11T21:50:47.881Z,67.67
2022-08-11T21:53:35.006Z,68.07
2022-08-11T21:56:22.520Z,68.04
2022-08-11T21:59:15.623Z,68.18
2022-08-11T22:02:03.415Z,68.35
2022-08-11T22:04:50.290Z,68.70
2022-08-11T22:07:39.510Z,68.72
2022-08-11T22:10:40.894Z,68.85
2022-08-11T22:13:30.810Z,68.69
2022-08-11T22:16:17.776Z,68.59
2022-08-11T22:19:09.089Z,68.64
2022-08-11T22:22:03.246Z,68.59
2022-08-11T22:24:52.121Z,68.85
2022-08-11T22:27:40.175Z,69.01
2022-08-11T22:30:27.852Z,68.69
2022-08-11T22:33:16.019Z,68.88
2022-08-11T22:36:03.176Z,68.73
2022-08-11T22:38:51.750Z,68.72
2022-08-11T22:41:39.965Z,68.68
2022-08-11T22:44:27.501Z,68.57
2022-08-11T22:47:18.651Z,68.72
2022-08-11T22:50:07.866Z,68.30
2022-08-11T22:52:55.104Z,68.30
2022-08-11T22:55:43.298Z,68.14
2022-08-11T22:58:30.714Z,68.43
2022-08-11T23:01:17.493Z,68.32
2022-08-11T23:04:07.759Z,68.25
2022-08-11T23:06:54.460Z,68.42
2022-08-11T23:09:42.035Z,68.17
2022-08-11T23:12:29.200Z,68.52
2022-08-11T23:15:16.456Z,68.58
2022-08-11T23:18:03.073Z,68.81
2022-08-11T23:20:56.227Z,69.10
2022-08-11T23:23:47.184Z,69.03
2022-08-11T23:26:36.452Z,69.15
2022-08-11T23:29:25.595Z,69.15
2022-08-11T23:32:12.547Z,69.38
2022-08-11T23:35:37.728Z,69.55
2022-08-11T23:38:06.603Z,69.79
2022-08-11T23:40:53.067Z,70.30
2022-08-11T23:43:40.631Z,70.35
2022-08-11T23:46:27.977Z,70.14
2022-08-11T23:49:16.496Z,70.70
2022-08-11T23:52:03.691Z,70.78
2022-08-11T23:54:51.890Z,71.05
2022-08-11T23:57:47.934Z,71.29
